Time;durP1;ratioP1;P1;durP2;ratioP2;P2;SDS_P1;SDS_P2;PMS_P1;PMS_P2;Temp;Humidity;BMP_temperature;BMP_pressure;BME280_temperature;BME280_humidity;BME280_pressure;Samples;Min_cycle;Max_cycle;Signal;HPM_P1;HPM_P2
2021/10/12 00:00:47;;;;;;;;;;;11.10;99.90;;;;;;1884202;74;20211;-76
2021/10/12 00:03:13;;;;;;;;;;;11.10;99.90;;;;;;1884673;74;20228;-77
2021/10/12 00:05:40;;;;;;;;;;;11.10;99.90;;;;;;1883570;74;20273;-75
2021/10/12 00:08:08;;;;;;;;;;;11.10;99.90;;;;;;1881476;74;20484;-78
2021/10/12 00:10:35;;;;;;;;;;;11.00;99.90;;;;;;1883211;74;20397;-77
2021/10/12 00:13:02;;;;;;;;;;;11.00;99.90;;;;;;1887803;74;20215;-76
2021/10/12 00:15:29;;;;;;;;;;;10.90;99.90;;;;;;1880316;74;20237;-77
2021/10/12 00:17:56;;;;;;;;;;;11.00;99.90;;;;;;1885540;74;20147;-79
2021/10/12 00:20:22;;;;;;;;;;;11.00;99.90;;;;;;1887127;74;20139;-77
2021/10/12 00:22:49;;;;;;;;;;;10.90;99.90;;;;;;1880563;74;20229;-78
2021/10/12 00:25:16;;;;;;;;;;;11.00;99.90;;;;;;1881925;74;20242;-77
2021/10/12 00:27:43;;;;;;;;;;;10.90;99.90;;;;;;1885177;74;20198;-77
2021/10/12 00:30:10;;;;;;;;;;;10.90;99.90;;;;;;1883535;74;20259;-77
2021/10/12 00:32:37;;;;;;;;;;;10.90;99.90;;;;;;1882857;74;20240;-76
2021/10/12 00:35:04;;;;;;;;;;;10.90;99.90;;;;;;1887868;74;20285;-74
2021/10/12 00:37:31;;;;;;;;;;;11.00;99.90;;;;;;1881469;74;20226;-74
2021/10/12 00:39:57;;;;;;;;;;;11.00;99.90;;;;;;1893927;74;20503;-75
2021/10/12 00:42:24;;;;;;;;;;;11.00;99.90;;;;;;1881511;74;20233;-76
2021/10/12 00:44:51;;;;;;;;;;;11.00;99.90;;;;;;1888175;74;20285;-74
2021/10/12 00:47:18;;;;;;;;;;;10.90;99.90;;;;;;1882846;74;20227;-76
2021/10/12 00:49:45;;;;;;;;;;;10.90;99.90;;;;;;1884314;74;20179;-76
2021/10/12 00:52:11;;;;;;;;;;;11.00;99.90;;;;;;1881869;74;20253;-75
2021/10/12 00:54:38;;;;;;;;;;;11.00;99.90;;;;;;1880015;74;20187;-76
2021/10/12 00:57:06;;;;;;;;;;;11.00;99.90;;;;;;1880310;74;20207;-75
2021/10/12 00:59:35;;;;;;;;;;;11.00;99.90;;;;;;1881663;74;20185;-76
2021/10/12 01:02:02;;;;;;;;;;;11.00;99.90;;;;;;1881389;74;20471;-76
2021/10/12 01:04:29;;;;;;;;;;;11.10;99.90;;;;;;1879638;74;20139;-77
2021/10/12 01:06:56;;;;;;;;;;;11.20;99.90;;;;;;1884319;74;20197;-76
2021/10/12 01:09:23;;;;;;;;;;;11.20;99.90;;;;;;1879252;74;20174;-76
2021/10/12 01:11:50;;;;;;;;;;;11.30;99.90;;;;;;1883074;74;20607;-76
2021/10/12 01:14:17;;;;;;;;;;;11.20;99.90;;;;;;1884242;74;20197;-76
2021/10/12 01:16:44;;;;;;;;;;;11.30;99.90;;;;;;1885367;74;20225;-76
2021/10/12 01:19:11;;;;;;;;;;;11.30;99.90;;;;;;1886067;74;20237;-76
2021/10/12 01:21:40;;;;;;;;;;;11.30;99.90;;;;;;1884739;74;20195;-72
2021/10/12 01:24:06;;;;;;;;;;;11.30;99.90;;;;;;1883504;74;20440;-73
2021/10/12 01:26:34;;;;;;;;;;;11.30;99.90;;;;;;1881601;74;20193;-72
2021/10/12 01:29:01;;;;;;;;;;;11.20;99.90;;;;;;1887380;74;20186;-71
2021/10/12 01:31:29;;;;;;;;;;;11.20;99.90;;;;;;1883935;74;20227;-73
2021/10/12 01:33:55;;;;;;;;;;;11.30;99.90;;;;;;1884267;74;20116;-73
2021/10/12 01:36:22;;;;;;;;;;;11.30;99.90;;;;;;1882613;74;20204;-73
2021/10/12 01:38:49;;;;;;;;;;;11.30;99.90;;;;;;1880703;74;20208;-73
2021/10/12 01:41:17;;;;;;;;;;;11.30;99.90;;;;;;1880443;74;20216;-73
2021/10/12 01:43:44;;;;;;;;;;;11.40;99.90;;;;;;1878864;74;20189;-72
2021/10/12 01:46:11;;;;;;;;;;;11.40;99.90;;;;;;1882076;74;20185;-72
2021/10/12 01:48:38;;;;;;;;;;;11.40;99.90;;;;;;1881306;74;20622;-72
2021/10/12 01:51:05;;;;;;;;;;;11.40;99.90;;;;;;1878216;74;20175;-72
2021/10/12 01:53:32;;;;;;;;;;;11.40;99.90;;;;;;1876395;74;20122;-73
2021/10/12 01:55:59;;;;;;;;;;;11.50;99.90;;;;;;1879652;74;20824;-73
2021/10/12 01:58:26;;;;;;;;;;;11.30;99.90;;;;;;1880438;74;20222;-73
2021/10/12 02:00:52;;;;;;;;;;;11.40;99.90;;;;;;1876500;74;20130;-73
2021/10/12 02:03:19;;;;;;;;;;;11.40;99.90;;;;;;1878691;74;20209;-73
2021/10/12 02:05:46;;;;;;;;;;;11.40;99.90;;;;;;1883832;74;20194;-73
2021/10/12 02:08:13;;;;;;;;;;;11.40;99.90;;;;;;1878848;76;20129;-73
2021/10/12 02:10:40;;;;;;;;;;;11.40;99.90;;;;;;1881342;74;20171;-73
2021/10/12 02:13:06;;;;;;;;;;;11.40;99.90;;;;;;1883644;74;20143;-73
2021/10/12 02:15:33;;;;;;;;;;;11.40;99.90;;;;;;1878991;74;20222;-73
2021/10/12 02:18:00;;;;;;;;;;;11.50;99.90;;;;;;1876558;74;20445;-72
2021/10/12 02:20:27;;;;;;;;;;;11.50;99.90;;;;;;1881304;74;20108;-73
2021/10/12 02:22:53;;;;;;;;;;;11.50;99.90;;;;;;1879645;74;20557;-73
2021/10/12 02:25:20;;;;;;;;;;;11.50;99.90;;;;;;1881530;74;20173;-72
2021/10/12 02:27:47;;;;;;;;;;;11.50;99.90;;;;;;1882622;74;20253;-72
2021/10/12 02:30:14;;;;;;;;;;;11.40;99.90;;;;;;1879051;74;20202;-72
2021/10/12 02:32:41;;;;;;;;;;;11.50;99.90;;;;;;1882347;74;20146;-72
2021/10/12 02:35:08;;;;;;;;;;;11.40;99.90;;;;;;1884808;74;20222;-72
2021/10/12 02:37:35;;;;;;;;;;;11.40;99.90;;;;;;1877333;74;20221;-72
2021/10/12 02:40:01;;;;;;;;;;;11.40;99.90;;;;;;1882202;74;20411;-72
2021/10/12 02:42:28;;;;;;;;;;;11.40;99.90;;;;;;1878221;74;20233;-69
2021/10/12 02:44:55;;;;;;;;;;;11.40;99.90;;;;;;1884535;74;20209;-71
2021/10/12 02:47:22;;;;;;;;;;;11.40;99.90;;;;;;1882910;74;20186;-69
2021/10/12 02:49:49;;;;;;;;;;;11.50;99.90;;;;;;1880563;74;20176;-73
2021/10/12 02:52:15;;;;;;;;;;;11.50;99.90;;;;;;1874688;74;20460;-73
2021/10/12 02:54:42;;;;;;;;;;;11.60;99.90;;;;;;1876156;74;20296;-73
2021/10/12 02:57:09;;;;;;;;;;;11.50;99.90;;;;;;1875355;74;20451;-73
2021/10/12 02:59:36;;;;;;;;;;;11.50;99.90;;;;;;1875190;74;20155;-73
2021/10/12 03:02:03;;;;;;;;;;;11.50;99.90;;;;;;1883572;74;20484;-73
2021/10/12 03:04:29;;;;;;;;;;;11.50;99.90;;;;;;1882228;74;20162;-73
2021/10/12 03:06:56;;;;;;;;;;;11.50;99.90;;;;;;1878823;74;20553;-72
2021/10/12 03:09:23;;;;;;;;;;;11.50;99.90;;;;;;1877759;74;20184;-73
2021/10/12 03:11:50;;;;;;;;;;;11.50;99.90;;;;;;1878571;74;20462;-73
2021/10/12 03:14:16;;;;;;;;;;;11.60;99.90;;;;;;1878701;74;20212;-72
2021/10/12 03:16:43;;;;;;;;;;;11.70;99.90;;;;;;1876991;74;20161;-72
2021/10/12 03:19:12;;;;;;;;;;;11.70;99.90;;;;;;1880214;74;20434;-71
2021/10/12 03:21:47;;;;;;;;;;;11.70;99.90;;;;;;1881973;74;20212;-71
2021/10/12 03:24:07;;;;;;;;;;;11.60;99.90;;;;;;1877388;74;20186;-73
2021/10/12 03:26:34;;;;;;;;;;;11.60;99.90;;;;;;1882924;74;20261;-73
2021/10/12 03:29:01;;;;;;;;;;;11.70;99.90;;;;;;1879893;74;20234;-73
2021/10/12 03:31:28;;;;;;;;;;;11.70;99.90;;;;;;1879282;74;20204;-73
2021/10/12 03:33:55;;;;;;;;;;;11.60;99.90;;;;;;1884179;74;20127;-72
2021/10/12 03:36:21;;;;;;;;;;;11.50;99.90;;;;;;1883678;74;20174;-73
2021/10/12 03:38:48;;;;;;;;;;;11.50;99.90;;;;;;1875989;74;21174;-73
2021/10/12 03:41:15;;;;;;;;;;;11.50;99.90;;;;;;1876288;74;20175;-73
2021/10/12 03:43:42;;;;;;;;;;;11.50;99.90;;;;;;1883131;74;20206;-73
2021/10/12 03:46:09;;;;;;;;;;;11.50;99.90;;;;;;1880112;74;20190;-73
2021/10/12 03:48:36;;;;;;;;;;;11.50;99.90;;;;;;1880576;74;20210;-73
2021/10/12 03:51:02;;;;;;;;;;;11.50;99.90;;;;;;1880249;74;20127;-72
2021/10/12 03:53:29;;;;;;;;;;;11.50;99.90;;;;;;1884821;74;20276;-73
2021/10/12 03:55:56;;;;;;;;;;;11.40;99.90;;;;;;1881559;74;20214;-73
2021/10/12 03:58:23;;;;;;;;;;;11.50;99.90;;;;;;1884083;74;20224;-73
2021/10/12 04:00:50;;;;;;;;;;;11.50;99.90;;;;;;1883781;74;20187;-73
2021/10/12 04:03:16;;;;;;;;;;;11.30;99.90;;;;;;1881470;76;20179;-74
2021/10/12 04:05:43;;;;;;;;;;;11.40;99.90;;;;;;1881761;74;20188;-73
2021/10/12 04:08:11;;;;;;;;;;;11.40;99.90;;;;;;1877386;74;20176;-74
2021/10/12 04:10:38;;;;;;;;;;;11.30;99.90;;;;;;1883585;74;20213;-73
2021/10/12 04:13:05;;;;;;;;;;;11.20;99.90;;;;;;1881151;74;20196;-73
2021/10/12 04:15:32;;;;;;;;;;;11.20;99.90;;;;;;1880823;74;20130;-74
2021/10/12 04:17:59;;;;;;;;;;;11.20;99.90;;;;;;1884979;74;20201;-74
2021/10/12 04:20:27;;;;;;;;;;;11.20;99.90;;;;;;1885917;74;20147;-72
2021/10/12 04:22:55;;;;;;;;;;;11.20;99.90;;;;;;1876706;74;20139;-70
2021/10/12 04:25:22;;;;;;;;;;;11.20;99.90;;;;;;1879258;74;20163;-72
2021/10/12 04:27:51;;;;;;;;;;;11.10;99.90;;;;;;1885323;74;20512;-71
2021/10/12 04:30:18;;;;;;;;;;;11.10;99.90;;;;;;1879428;74;20282;-70
2021/10/12 04:32:45;;;;;;;;;;;11.20;99.90;;;;;;1877807;74;20167;-74
2021/10/12 04:35:11;;;;;;;;;;;11.20;99.90;;;;;;1882235;74;20203;-73
2021/10/12 04:37:38;;;;;;;;;;;11.20;99.90;;;;;;1876209;74;20213;-71
2021/10/12 04:40:05;;;;;;;;;;;11.30;99.90;;;;;;1877138;74;20584;-74
2021/10/12 04:42:32;;;;;;;;;;;11.40;99.90;;;;;;1880600;74;20155;-74
2021/10/12 04:44:59;;;;;;;;;;;11.50;99.90;;;;;;1878345;74;20178;-71
2021/10/12 04:47:26;;;;;;;;;;;11.50;99.90;;;;;;1879492;74;20120;-72
2021/10/12 04:49:53;;;;;;;;;;;11.50;99.90;;;;;;1882157;74;20221;-72
2021/10/12 04:52:19;;;;;;;;;;;11.40;99.90;;;;;;1880723;74;20185;-72
2021/10/12 04:54:46;;;;;;;;;;;11.50;99.90;;;;;;1882195;74;20685;-72
2021/10/12 04:57:13;;;;;;;;;;;11.50;99.90;;;;;;1883561;74;20295;-73
2021/10/12 04:59:40;;;;;;;;;;;11.50;99.90;;;;;;1879382;74;20484;-73
2021/10/12 05:02:07;;;;;;;;;;;11.50;99.90;;;;;;1878704;74;20126;-73
2021/10/12 05:04:33;;;;;;;;;;;11.60;99.90;;;;;;1879857;74;20641;-73
2021/10/12 05:07:00;;;;;;;;;;;11.60;99.90;;;;;;1884525;74;20199;-72
2021/10/12 05:09:27;;;;;;;;;;;11.60;99.90;;;;;;1877323;74;20532;-72
2021/10/12 05:11:54;;;;;;;;;;;11.60;99.90;;;;;;1879967;74;20176;-73
2021/10/12 05:14:21;;;;;;;;;;;11.60;99.90;;;;;;1881536;74;20459;-71
2021/10/12 05:16:50;;;;;;;;;;;11.60;99.90;;;;;;1885536;74;20193;-71
2021/10/12 05:19:16;;;;;;;;;;;11.50;99.90;;;;;;1882821;74;20167;-72
2021/10/12 05:21:43;;;;;;;;;;;11.60;99.90;;;;;;1880519;74;20127;-72
2021/10/12 05:24:10;;;;;;;;;;;11.60;99.90;;;;;;1885632;74;20200;-71
2021/10/12 05:26:36;;;;;;;;;;;11.60;99.90;;;;;;1880656;74;20487;-73
2021/10/12 05:29:03;;;;;;;;;;;11.50;99.90;;;;;;1873107;74;20129;-72
2021/10/12 05:31:30;;;;;;;;;;;11.40;99.90;;;;;;1881635;74;20229;-71
2021/10/12 05:33:57;;;;;;;;;;;11.50;99.90;;;;;;1879539;74;20545;-71
2021/10/12 05:36:24;;;;;;;;;;;11.50;99.90;;;;;;1879777;74;20266;-76
2021/10/12 05:38:50;;;;;;;;;;;11.40;99.90;;;;;;1882229;74;20224;-73
2021/10/12 05:41:17;;;;;;;;;;;11.40;99.90;;;;;;1879396;74;20231;-72
2021/10/12 05:43:46;;;;;;;;;;;11.40;99.90;;;;;;1882786;74;20236;-73
2021/10/12 05:46:13;;;;;;;;;;;11.40;99.90;;;;;;1879542;74;20219;-74
2021/10/12 05:48:39;;;;;;;;;;;11.40;99.90;;;;;;1875849;74;20129;-74
2021/10/12 05:51:09;;;;;;;;;;;11.40;99.90;;;;;;1878125;74;20222;-73
2021/10/12 05:53:47;;;;;;;;;;;11.50;99.90;;;;;;1881521;74;20211;-73
2021/10/12 05:56:20;;;;;;;;;;;11.40;99.90;;;;;;1876600;74;20207;-76
2021/10/12 05:58:45;;;;;;;;;;;11.40;99.90;;;;;;1875211;74;20187;-72
2021/10/12 06:01:12;;;;;;;;;;;11.40;99.90;;;;;;1881060;74;20191;-75
2021/10/12 06:03:40;;;;;;;;;;;11.40;99.90;;;;;;1879797;74;20163;-73
2021/10/12 06:06:07;;;;;;;;;;;11.40;99.90;;;;;;1880047;74;20155;-68
2021/10/12 06:08:34;;;;;;;;;;;11.40;99.90;;;;;;1883861;74;20333;-70
2021/10/12 06:11:01;;;;;;;;;;;11.50;99.90;;;;;;1875578;74;20230;-70
2021/10/12 06:13:28;;;;;;;;;;;11.40;99.90;;;;;;1881764;74;20278;-69
2021/10/12 06:15:55;;;;;;;;;;;11.40;99.90;;;;;;1882041;74;20451;-70
2021/10/12 06:18:22;;;;;;;;;;;11.50;99.90;;;;;;1884016;76;20188;-71
2021/10/12 06:20:51;;;;;;;;;;;11.50;99.90;;;;;;1883821;74;20190;-70
2021/10/12 06:23:18;;;;;;;;;;;11.50;99.90;;;;;;1877361;75;20294;-71
2021/10/12 06:25:45;;;;;;;;;;;11.50;99.90;;;;;;1880465;74;20216;-71
2021/10/12 06:28:14;;;;;;;;;;;11.50;99.90;;;;;;1880258;75;20473;-72
2021/10/12 06:30:41;;;;;;;;;;;11.40;99.90;;;;;;1878976;74;20116;-70
2021/10/12 06:33:08;;;;;;;;;;;11.50;99.90;;;;;;1883236;75;20222;-71
2021/10/12 06:35:35;;;;;;;;;;;11.50;99.90;;;;;;1878147;76;20401;-71
2021/10/12 06:38:02;;;;;;;;;;;11.50;99.90;;;;;;1881772;75;20507;-70
2021/10/12 06:40:30;;;;;;;;;;;11.50;99.90;;;;;;1884217;74;20472;-71
2021/10/12 06:42:57;;;;;;;;;;;11.60;99.90;;;;;;1882315;75;20384;-70
2021/10/12 06:45:24;;;;;;;;;;;11.60;99.90;;;;;;1883135;75;20235;-68
2021/10/12 06:47:51;;;;;;;;;;;11.70;99.90;;;;;;1880841;75;20124;-73
2021/10/12 06:50:19;;;;;;;;;;;11.60;99.90;;;;;;1887300;74;20207;-68
2021/10/12 06:52:46;;;;;;;;;;;11.70;99.90;;;;;;1883043;74;20201;-70
2021/10/12 06:55:14;;;;;;;;;;;11.70;99.90;;;;;;1881679;75;20156;-70
2021/10/12 06:57:42;;;;;;;;;;;11.80;99.90;;;;;;1882064;75;20112;-70
2021/10/12 07:00:11;;;;;;;;;;;11.80;99.90;;;;;;1882074;75;20483;-69
2021/10/12 07:02:38;;;;;;;;;;;11.80;99.90;;;;;;1884288;74;20982;-68
2021/10/12 07:05:05;;;;;;;;;;;11.80;99.90;;;;;;1887235;75;20214;-70
2021/10/12 07:07:32;;;;;;;;;;;11.80;99.90;;;;;;1879460;75;20180;-69
2021/10/12 07:09:59;;;;;;;;;;;11.80;99.90;;;;;;1882854;75;20194;-69
2021/10/12 07:12:26;;;;;;;;;;;11.80;99.90;;;;;;1881850;74;20185;-70
2021/10/12 07:14:54;;;;;;;;;;;11.80;99.90;;;;;;1881797;75;20198;-72
2021/10/12 07:17:20;;;;;;;;;;;11.80;99.90;;;;;;1882647;74;20164;-69
2021/10/12 07:19:47;;;;;;;;;;;11.80;99.90;;;;;;1887331;74;20238;-71
2021/10/12 07:22:14;;;;;;;;;;;11.90;99.90;;;;;;1885452;74;20233;-69
2021/10/12 07:24:41;;;;;;;;;;;11.90;99.90;;;;;;1891089;74;20186;-70
2021/10/12 07:27:08;;;;;;;;;;;11.90;99.90;;;;;;1886950;74;20145;-71
2021/10/12 07:29:35;;;;;;;;;;;12.00;99.90;;;;;;1882943;74;20124;-70
2021/10/12 07:32:02;;;;;;;;;;;12.00;99.90;;;;;;1887102;74;20195;-71
2021/10/12 07:34:29;;;;;;;;;;;12.00;99.90;;;;;;1886465;74;20225;-70
2021/10/12 07:36:55;;;;;;;;;;;12.00;99.90;;;;;;1885491;74;20175;-70
2021/10/12 07:39:22;;;;;;;;;;;12.00;99.90;;;;;;1886276;74;20132;-69
2021/10/12 07:41:49;;;;;;;;;;;12.00;99.90;;;;;;1887092;74;20415;-70
2021/10/12 07:44:16;;;;;;;;;;;12.00;99.90;;;;;;1886315;75;20233;-71
2021/10/12 07:46:43;;;;;;;;;;;12.00;99.90;;;;;;1886967;75;20192;-72
2021/10/12 07:49:10;;;;;;;;;;;12.00;99.90;;;;;;1883488;74;20184;-72
2021/10/12 07:51:36;;;;;;;;;;;11.90;99.90;;;;;;1883630;74;20306;-72
2021/10/12 07:54:08;;;;;;;;;;;11.90;99.90;;;;;;1880804;74;20137;-72
2021/10/12 07:56:38;;;;;;;;;;;12.00;99.90;;;;;;1887464;74;20285;-72
2021/10/12 07:59:05;;;;;;;;;;;12.00;99.90;;;;;;1884628;74;20215;-73
2021/10/12 08:01:33;;;;;;;;;;;12.00;99.90;;;;;;1882228;74;20139;-74
2021/10/12 08:04:00;;;;;;;;;;;12.10;99.90;;;;;;1886676;74;20191;-74
2021/10/12 08:06:27;;;;;;;;;;;12.20;99.90;;;;;;1878673;74;20206;-74
2021/10/12 08:08:55;;;;;;;;;;;12.20;99.90;;;;;;1884542;75;20122;-74
2021/10/12 08:11:24;;;;;;;;;;;12.30;99.90;;;;;;1877929;75;20249;-73
2021/10/12 08:13:53;;;;;;;;;;;12.30;99.90;;;;;;1880721;74;20452;-75
2021/10/12 08:16:24;;;;;;;;;;;12.30;99.90;;;;;;1878549;74;20121;-74
2021/10/12 08:18:47;;;;;;;;;;;12.40;99.90;;;;;;1885068;75;20222;-73
2021/10/12 08:21:14;;;;;;;;;;;12.40;99.90;;;;;;1877625;74;20210;-73
2021/10/12 08:23:41;;;;;;;;;;;12.40;99.90;;;;;;1878076;75;20249;-75
2021/10/12 08:26:08;;;;;;;;;;;12.50;99.90;;;;;;1883517;74;20210;-72
2021/10/12 08:28:35;;;;;;;;;;;12.60;99.90;;;;;;1879748;75;20178;-74
2021/10/12 08:31:02;;;;;;;;;;;12.50;99.90;;;;;;1880794;74;20178;-73
2021/10/12 08:33:28;;;;;;;;;;;12.50;99.90;;;;;;1884806;75;20186;-73
2021/10/12 08:35:55;;;;;;;;;;;12.60;99.90;;;;;;1881028;74;20317;-73
2021/10/12 08:38:22;;;;;;;;;;;12.70;99.90;;;;;;1883108;75;20179;-72
2021/10/12 08:40:49;;;;;;;;;;;12.70;99.90;;;;;;1879124;74;20203;-74
2021/10/12 08:43:16;;;;;;;;;;;12.70;99.90;;;;;;1881173;75;20234;-74
2021/10/12 08:45:42;;;;;;;;;;;12.70;99.90;;;;;;1879104;74;20250;-73
2021/10/12 08:48:11;;;;;;;;;;;12.70;99.90;;;;;;1883704;75;20201;-74
2021/10/12 08:50:38;;;;;;;;;;;12.70;99.90;;;;;;1876454;75;20135;-72
2021/10/12 08:53:05;;;;;;;;;;;12.70;99.90;;;;;;1886959;75;20229;-71
2021/10/12 08:55:31;;;;;;;;;;;12.60;99.90;;;;;;1881819;75;20246;-74
2021/10/12 08:57:58;;;;;;;;;;;12.70;99.90;;;;;;1880499;74;20226;-74
2021/10/12 09:00:28;;;;;;;;;;;12.70;99.90;;;;;;1885160;74;20510;-74
2021/10/12 09:03:15;;;;;;;;;;;12.70;99.90;;;;;;1880830;75;20209;-74
2021/10/12 09:05:26;;;;;;;;;;;12.70;99.90;;;;;;1873643;74;20167;-74
2021/10/12 09:07:53;;;;;;;;;;;12.70;99.90;;;;;;1877809;75;20237;-74
2021/10/12 09:10:21;;;;;;;;;;;12.70;99.90;;;;;;1880315;74;20169;-74
2021/10/12 09:12:53;;;;;;;;;;;12.60;99.90;;;;;;1879299;76;20126;-74
2021/10/12 09:15:19;;;;;;;;;;;12.70;99.90;;;;;;1880663;76;20535;-73
2021/10/12 09:17:49;;;;;;;;;;;12.70;99.90;;;;;;1878534;74;20154;-74
2021/10/12 09:20:19;;;;;;;;;;;12.70;99.90;;;;;;1873181;74;20185;-73
2021/10/12 09:23:04;;;;;;;;;;;12.80;99.90;;;;;;1875804;75;20766;-74
2021/10/12 09:25:35;;;;;;;;;;;12.80;99.90;;;;;;1880928;74;20144;-73
2021/10/12 09:28:02;;;;;;;;;;;12.80;99.90;;;;;;1881153;74;20253;-74
2021/10/12 09:30:29;;;;;;;;;;;12.80;99.90;;;;;;1881057;74;20124;-74
2021/10/12 09:33:00;;;;;;;;;;;12.80;99.90;;;;;;1881250;75;20237;-74
2021/10/12 09:35:28;;;;;;;;;;;12.70;99.90;;;;;;1881433;75;20404;-74
2021/10/12 09:38:05;;;;;;;;;;;12.70;99.90;;;;;;1885037;75;20120;-74
2021/10/12 09:40:34;;;;;;;;;;;12.80;99.90;;;;;;1880043;74;20274;-74
2021/10/12 09:43:00;;;;;;;;;;;12.90;99.90;;;;;;1881075;75;20980;-74
2021/10/12 09:45:38;;;;;;;;;;;12.90;99.90;;;;;;1879118;75;20215;-74
2021/10/12 09:48:23;;;;;;;;;;;12.90;99.90;;;;;;1886478;74;20124;-73
2021/10/12 09:50:50;;;;;;;;;;;12.90;99.90;;;;;;1886268;74;20203;-74
2021/10/12 09:53:32;;;;;;;;;;;13.00;99.90;;;;;;1876398;74;20531;-74
2021/10/12 09:55:59;;;;;;;;;;;13.00;99.90;;;;;;1884643;74;20178;-73
2021/10/12 09:58:27;;;;;;;;;;;13.20;99.90;;;;;;1880061;75;20427;-73
2021/10/12 10:00:54;;;;;;;;;;;13.40;99.90;;;;;;1880268;74;20345;-73
2021/10/12 10:03:21;;;;;;;;;;;13.50;99.90;;;;;;1883492;75;20205;-75
2021/10/12 10:05:55;;;;;;;;;;;13.50;99.90;;;;;;1879497;75;20220;-73
2021/10/12 10:08:22;;;;;;;;;;;13.60;99.90;;;;;;1884060;75;20205;-73
2021/10/12 10:10:49;;;;;;;;;;;13.70;99.90;;;;;;1882053;74;20223;-73
2021/10/12 10:13:18;;;;;;;;;;;13.80;99.90;;;;;;1884378;74;20250;-74
2021/10/12 10:15:45;;;;;;;;;;;13.90;99.90;;;;;;1878145;75;20218;-73
2021/10/12 10:18:17;;;;;;;;;;;13.90;99.90;;;;;;1881092;75;20389;-73
2021/10/12 10:20:44;;;;;;;;;;;14.00;99.90;;;;;;1878778;75;20156;-73
2021/10/12 10:23:10;;;;;;;;;;;14.10;99.90;;;;;;1882625;74;20152;-72
2021/10/12 10:25:41;;;;;;;;;;;14.20;99.90;;;;;;1883605;74;20163;-73
2021/10/12 10:28:19;;;;;;;;;;;14.20;99.90;;;;;;1885607;75;20147;-73
2021/10/12 10:30:50;;;;;;;;;;;14.30;99.90;;;;;;1885758;74;20216;-72
2021/10/12 10:33:27;;;;;;;;;;;14.50;99.90;;;;;;1929576;72;20200;-73
2021/10/12 10:35:59;;;;;;;;;;;14.60;99.90;;;;;;1928085;72;20379;-73
2021/10/12 10:38:26;;;;;;;;;;;14.60;99.90;;;;;;1930199;72;20303;-73
2021/10/12 10:41:04;;;;;;;;;;;14.60;99.90;;;;;;1928162;72;20274;-73
2021/10/12 10:43:51;;;;;;;;;;;14.70;99.90;;;;;;1923565;72;20130;-74
2021/10/12 10:46:34;;;;;;;;;;;14.60;99.90;;;;;;1928130;72;20199;-73
2021/10/12 10:49:05;;;;;;;;;;;14.50;99.90;;;;;;1929993;72;20229;-73
2021/10/12 10:51:33;;;;;;;;;;;14.30;99.90;;;;;;1927749;72;20216;-73
2021/10/12 10:54:00;;;;;;;;;;;14.20;99.90;;;;;;1926267;72;20123;-74
2021/10/12 10:56:27;;;;;;;;;;;14.30;99.90;;;;;;1928890;72;20197;-74
2021/10/12 10:58:55;;;;;;;;;;;14.60;99.90;;;;;;1926852;72;20211;-74
2021/10/12 11:01:30;;;;;;;;;;;14.50;99.90;;;;;;1919602;72;20145;-74
2021/10/12 11:03:57;;;;;;;;;;;14.50;99.90;;;;;;1914109;72;20182;-74
2021/10/12 11:06:24;;;;;;;;;;;14.40;99.90;;;;;;1928770;72;20177;-75
2021/10/12 11:08:57;;;;;;;;;;;14.30;99.90;;;;;;1929659;72;20427;-75
2021/10/12 11:11:24;;;;;;;;;;;14.10;99.90;;;;;;1922487;72;21380;-75
2021/10/12 11:13:52;;;;;;;;;;;14.20;99.90;;;;;;1930492;72;20172;-73
2021/10/12 11:16:19;;;;;;;;;;;14.20;99.90;;;;;;1926778;72;20479;-74
2021/10/12 11:18:46;;;;;;;;;;;14.40;99.90;;;;;;1928246;72;20224;-75
2021/10/12 11:21:17;;;;;;;;;;;14.50;99.90;;;;;;1926124;72;20126;-73
2021/10/12 11:23:50;;;;;;;;;;;14.50;99.90;;;;;;1928710;72;20216;-74
2021/10/12 11:26:20;;;;;;;;;;;14.40;99.90;;;;;;1928061;72;20161;-72
2021/10/12 11:28:49;;;;;;;;;;;14.20;99.90;;;;;;1931179;72;20151;-74
2021/10/12 11:31:17;;;;;;;;;;;14.10;99.90;;;;;;1928153;72;20493;-72
2021/10/12 11:33:45;;;;;;;;;;;14.30;99.90;;;;;;1928317;72;20161;-73
2021/10/12 11:36:13;;;;;;;;;;;14.60;99.90;;;;;;1925488;72;20231;-74
2021/10/12 11:38:42;;;;;;;;;;;14.90;99.90;;;;;;1927768;72;20163;-74
2021/10/12 11:41:13;;;;;;;;;;;14.90;99.90;;;;;;1927323;73;20203;-74
2021/10/12 11:43:42;;;;;;;;;;;15.10;99.90;;;;;;1925783;72;20217;-72
2021/10/12 11:46:08;;;;;;;;;;;15.30;99.90;;;;;;1928485;72;20235;-73
2021/10/12 11:48:39;;;;;;;;;;;15.40;99.90;;;;;;1930000;72;20447;-72
2021/10/12 11:51:13;;;;;;;;;;;15.60;99.90;;;;;;1924762;73;20447;-74
2021/10/12 11:53:44;;;;;;;;;;;15.70;99.90;;;;;;1923648;72;20261;-74
2021/10/12 11:56:11;;;;;;;;;;;15.90;99.90;;;;;;1930337;72;20153;-74
2021/10/12 11:58:39;;;;;;;;;;;16.00;99.90;;;;;;1929774;72;20159;-74
2021/10/12 12:01:06;;;;;;;;;;;15.80;99.90;;;;;;1929724;72;20176;-72
2021/10/12 12:03:33;;;;;;;;;;;16.00;99.90;;;;;;1932078;72;20212;-74
2021/10/12 12:05:59;;;;;;;;;;;15.90;99.90;;;;;;1928829;73;20470;-74
2021/10/12 12:08:27;;;;;;;;;;;15.70;99.90;;;;;;1937924;72;20121;-74
2021/10/12 12:10:54;;;;;;;;;;;15.70;99.90;;;;;;1927014;73;20366;-75
2021/10/12 12:13:21;;;;;;;;;;;15.60;99.90;;;;;;1925616;74;20183;-73
2021/10/12 12:15:48;;;;;;;;;;;15.60;99.90;;;;;;1922448;72;20159;-73
2021/10/12 12:18:16;;;;;;;;;;;15.30;99.90;;;;;;1928878;72;20125;-72
2021/10/12 12:20:50;;;;;;;;;;;15.00;99.90;;;;;;1924842;72;20112;-72
2021/10/12 12:23:18;;;;;;;;;;;14.70;99.90;;;;;;1911879;73;20172;-73
2021/10/12 12:25:47;;;;;;;;;;;14.60;99.90;;;;;;1918000;72;20557;-72
2021/10/12 12:28:15;;;;;;;;;;;14.70;99.90;;;;;;1924630;72;20161;-73
2021/10/12 12:30:42;;;;;;;;;;;14.90;99.90;;;;;;1917564;74;20188;-73
2021/10/12 12:33:09;;;;;;;;;;;15.10;99.90;;;;;;1928726;72;20199;-73
2021/10/12 12:35:43;;;;;;;;;;;14.80;99.90;;;;;;1925940;72;20155;-73
2021/10/12 12:38:10;;;;;;;;;;;14.50;99.90;;;;;;1927278;73;20157;-72
2021/10/12 12:40:44;;;;;;;;;;;14.20;99.90;;;;;;1932475;73;20148;-72
2021/10/12 12:43:17;;;;;;;;;;;14.20;99.90;;;;;;1930602;72;20220;-72
2021/10/12 12:45:44;;;;;;;;;;;14.20;99.90;;;;;;1930120;72;20389;-73
2021/10/12 12:48:11;;;;;;;;;;;14.60;99.90;;;;;;1931888;72;20478;-73
2021/10/12 12:50:38;;;;;;;;;;;14.60;99.90;;;;;;1928983;73;20218;-73
2021/10/12 12:53:06;;;;;;;;;;;14.70;99.90;;;;;;1932008;72;20262;-72
2021/10/12 12:55:43;;;;;;;;;;;14.50;99.90;;;;;;1931507;72;20204;-72
2021/10/12 12:58:10;;;;;;;;;;;14.70;99.90;;;;;;1890128;74;20160;-73
2021/10/12 13:00:39;;;;;;;;;;;14.90;99.90;;;;;;1887752;74;20207;-72
2021/10/12 13:03:06;;;;;;;;;;;14.90;99.90;;;;;;1934018;72;20163;-72
2021/10/12 13:05:33;;;;;;;;;;;14.70;99.90;;;;;;1924528;73;20228;-72
2021/10/12 13:08:01;;;;;;;;;;;14.50;99.90;;;;;;1922512;72;20126;-73
2021/10/12 13:10:28;;;;;;;;;;;15.00;99.90;;;;;;1929926;72;20152;-73
2021/10/12 13:12:54;;;;;;;;;;;15.30;99.90;;;;;;1929434;72;20180;-74
2021/10/12 13:15:21;;;;;;;;;;;15.50;99.90;;;;;;1927141;72;20196;-73
2021/10/12 13:17:48;;;;;;;;;;;15.70;99.90;;;;;;1958415;71;20237;-72
2021/10/12 13:20:15;;;;;;;;;;;15.80;99.90;;;;;;1962321;71;20212;-73
2021/10/12 13:22:42;;;;;;;;;;;15.90;99.90;;;;;;1967966;71;20218;-73
2021/10/12 13:25:10;;;;;;;;;;;16.00;99.90;;;;;;1960168;71;20166;-73
2021/10/12 13:27:37;;;;;;;;;;;16.10;99.90;;;;;;1965909;71;20177;-72
2021/10/12 13:30:04;;;;;;;;;;;16.20;99.90;;;;;;1960930;71;20533;-74
2021/10/12 13:32:31;;;;;;;;;;;16.20;99.90;;;;;;1965477;71;20245;-73
2021/10/12 13:34:58;;;;;;;;;;;15.90;99.90;;;;;;1962549;71;20150;-73
2021/10/12 13:37:26;;;;;;;;;;;15.60;99.90;;;;;;1964077;71;20182;-73
2021/10/12 13:39:53;;;;;;;;;;;15.60;99.90;;;;;;1961769;71;20217;-73
2021/10/12 13:42:20;;;;;;;;;;;15.50;99.90;;;;;;1964908;71;20195;-73
2021/10/12 13:44:49;;;;;;;;;;;15.30;99.90;;;;;;1963857;71;20126;-73
2021/10/12 13:47:18;;;;;;;;;;;15.10;99.90;;;;;;1962677;71;20510;-73
2021/10/12 13:49:45;;;;;;;;;;;15.20;99.90;;;;;;1957991;71;20164;-73
2021/10/12 13:52:12;;;;;;;;;;;15.30;99.90;;;;;;1966696;71;20387;-72
2021/10/12 13:54:39;;;;;;;;;;;15.30;99.90;;;;;;1963327;71;20235;-72
2021/10/12 13:57:05;;;;;;;;;;;15.40;99.90;;;;;;1967497;71;20209;-73
2021/10/12 13:59:32;;;;;;;;;;;15.30;99.90;;;;;;1966898;71;20239;-73
2021/10/12 14:01:59;;;;;;;;;;;15.40;99.90;;;;;;1967500;71;20237;-73
2021/10/12 14:04:26;;;;;;;;;;;15.30;99.90;;;;;;1967622;71;20182;-73
2021/10/12 14:06:53;;;;;;;;;;;15.20;99.90;;;;;;1965984;71;20156;-73
2021/10/12 14:09:19;;;;;;;;;;;15.20;99.90;;;;;;1967592;71;20194;-73
2021/10/12 14:11:46;;;;;;;;;;;15.10;99.90;;;;;;1967367;71;20152;-72
2021/10/12 14:14:13;;;;;;;;;;;15.00;99.90;;;;;;1966993;71;20161;-73
2021/10/12 14:16:40;;;;;;;;;;;15.00;99.90;;;;;;1966092;71;20299;-73
2021/10/12 14:19:07;;;;;;;;;;;14.90;99.90;;;;;;1963994;71;20166;-73